sensor_id;sensor_type;location;lat;lon;timestamp;temperature;humidity
19164;DHT22;9714;51.208;4.242;2022-08-19T00:01:21;21.00;99.90
19164;DHT22;9714;51.208;4.242;2022-08-19T00:03:49;21.00;99.90
19164;DHT22;9714;51.208;4.242;2022-08-19T00:06:16;21.10;99.90
19164;DHT22;9714;51.208;4.242;2022-08-19T00:08:43;21.30;99.90
19164;DHT22;9714;51.208;4.242;2022-08-19T00:11:12;21.20;99.90
19164;DHT22;9714;51.208;4.242;2022-08-19T00:13:39;21.10;99.90
19164;DHT22;9714;51.208;4.242;2022-08-19T00:16:07;20.90;99.90
19164;DHT22;9714;51.208;4.242;2022-08-19T00:18:34;20.70;99.90
19164;DHT22;9714;51.208;4.242;2022-08-19T00:21:01;20.70;99.90
19164;DHT22;9714;51.208;4.242;2022-08-19T00:23:28;20.70;99.90
19164;DHT22;9714;51.208;4.242;2022-08-19T00:25:55;20.70;99.90
19164;DHT22;9714;51.208;4.242;2022-08-19T00:28:24;20.60;99.90
19164;DHT22;9714;51.208;4.242;2022-08-19T00:30:51;20.70;99.90
19164;DHT22;9714;51.208;4.242;2022-08-19T00:33:19;20.70;99.90
19164;DHT22;9714;51.208;4.242;2022-08-19T00:35:45;20.90;99.90
19164;DHT22;9714;51.208;4.242;2022-08-19T00:38:13;21.10;99.90
19164;DHT22;9714;51.208;4.242;2022-08-19T00:40:42;21.10;99.90
19164;DHT22;9714;51.208;4.242;2022-08-19T00:43:12;20.80;99.90
19164;DHT22;9714;51.208;4.242;2022-08-19T00:45:41;20.70;99.90
19164;DHT22;9714;51.208;4.242;2022-08-19T00:48:09;20.70;99.90
19164;DHT22;9714;51.208;4.242;2022-08-19T00:50:38;20.50;99.90
19164;DHT22;9714;51.208;4.242;2022-08-19T00:53:06;20.50;99.90
19164;DHT22;9714;51.208;4.242;2022-08-19T00:55:34;20.40;99.90
19164;DHT22;9714;51.208;4.242;2022-08-19T00:58:04;20.40;99.90
19164;DHT22;9714;51.208;4.242;2022-08-19T01:00:33;20.40;99.90
19164;DHT22;9714;51.208;4.242;2022-08-19T01:03:04;20.40;99.90
19164;DHT22;9714;51.208;4.242;2022-08-19T01:05:32;20.50;99.90
19164;DHT22;9714;51.208;4.242;2022-08-19T01:08:02;20.50;99.90
19164;DHT22;9714;51.208;4.242;2022-08-19T01:10:32;20.30;99.90
19164;DHT22;9714;51.208;4.242;2022-08-19T01:13:01;20.50;99.90
19164;DHT22;9714;51.208;4.242;2022-08-19T01:15:32;20.50;99.90
19164;DHT22;9714;51.208;4.242;2022-08-19T01:18:04;20.80;99.90
19164;DHT22;9714;51.208;4.242;2022-08-19T01:20:31;20.90;99.90
19164;DHT22;9714;51.208;4.242;2022-08-19T01:23:02;20.80;99.90
19164;DHT22;9714;51.208;4.242;2022-08-19T01:25:32;20.70;99.90
19164;DHT22;9714;51.208;4.242;2022-08-19T01:28:02;20.70;99.90
19164;DHT22;9714;51.208;4.242;2022-08-19T01:30:32;20.50;99.90
19164;DHT22;9714;51.208;4.242;2022-08-19T01:33:00;20.60;99.90
19164;DHT22;9714;51.208;4.242;2022-08-19T01:35:29;20.60;99.90
19164;DHT22;9714;51.208;4.242;2022-08-19T01:38:01;20.70;99.90
19164;DHT22;9714;51.208;4.242;2022-08-19T01:40:35;20.80;99.90
19164;DHT22;9714;51.208;4.242;2022-08-19T01:43:04;20.70;99.90
19164;DHT22;9714;51.208;4.242;2022-08-19T01:45:33;20.80;99.90
19164;DHT22;9714;51.208;4.242;2022-08-19T01:48:01;20.90;99.90
19164;DHT22;9714;51.208;4.242;2022-08-19T01:50:29;20.90;99.90
19164;DHT22;9714;51.208;4.242;2022-08-19T01:52:57;20.90;99.90
19164;DHT22;9714;51.208;4.242;2022-08-19T01:55:26;20.90;99.90
19164;DHT22;9714;51.208;4.242;2022-08-19T01:57:56;20.70;99.90
19164;DHT22;9714;51.208;4.242;2022-08-19T02:00:26;20.70;99.90
19164;DHT22;9714;51.208;4.242;2022-08-19T02:02:54;20.50;99.90
19164;DHT22;9714;51.208;4.242;2022-08-19T02:05:22;20.50;99.90
19164;DHT22;9714;51.208;4.242;2022-08-19T02:07:49;20.50;99.90
19164;DHT22;9714;51.208;4.242;2022-08-19T02:10:18;20.50;99.90
19164;DHT22;9714;51.208;4.242;2022-08-19T02:12:48;20.50;99.90
19164;DHT22;9714;51.208;4.242;2022-08-19T02:15:16;20.30;99.90
19164;DHT22;9714;51.208;4.242;2022-08-19T02:17:44;20.30;99.90
19164;DHT22;9714;51.208;4.242;2022-08-19T02:20:12;20.10;99.90
19164;DHT22;9714;51.208;4.242;2022-08-19T02:22:39;20.10;99.90
19164;DHT22;9714;51.208;4.242;2022-08-19T02:25:08;20.10;99.90
19164;DHT22;9714;51.208;4.242;2022-08-19T02:27:35;20.20;99.90
19164;DHT22;9714;51.208;4.242;2022-08-19T02:30:05;20.10;99.90
19164;DHT22;9714;51.208;4.242;2022-08-19T02:32:32;20.20;99.90
19164;DHT22;9714;51.208;4.242;2022-08-19T02:35:00;20.00;99.90
19164;DHT22;9714;51.208;4.242;2022-08-19T02:37:30;20.00;99.90
19164;DHT22;9714;51.208;4.242;2022-08-19T02:40:14;20.00;99.90
19164;DHT22;9714;51.208;4.242;2022-08-19T02:42:44;19.80;99.90
19164;DHT22;9714;51.208;4.242;2022-08-19T02:45:15;19.70;99.90
19164;DHT22;9714;51.208;4.242;2022-08-19T02:47:42;19.90;99.90
19164;DHT22;9714;51.208;4.242;2022-08-19T02:50:09;19.80;99.90
19164;DHT22;9714;51.208;4.242;2022-08-19T02:52:37;19.70;99.90
19164;DHT22;9714;51.208;4.242;2022-08-19T02:55:05;19.80;99.90
19164;DHT22;9714;51.208;4.242;2022-08-19T02:57:32;19.80;99.90
19164;DHT22;9714;51.208;4.242;2022-08-19T03:00:00;19.50;99.90
19164;DHT22;9714;51.208;4.242;2022-08-19T03:02:28;19.50;99.90
19164;DHT22;9714;51.208;4.242;2022-08-19T03:04:56;19.50;99.90
19164;DHT22;9714;51.208;4.242;2022-08-19T03:07:23;19.50;99.90
19164;DHT22;9714;51.208;4.242;2022-08-19T03:09:50;19.50;99.90
19164;DHT22;9714;51.208;4.242;2022-08-19T03:12:17;19.30;99.90
19164;DHT22;9714;51.208;4.242;2022-08-19T03:14:44;19.20;99.90
19164;DHT22;9714;51.208;4.242;2022-08-19T03:17:12;19.30;99.90
19164;DHT22;9714;51.208;4.242;2022-08-19T03:19:40;19.10;99.90
19164;DHT22;9714;51.208;4.242;2022-08-19T03:22:08;19.30;99.90
19164;DHT22;9714;51.208;4.242;2022-08-19T03:24:36;19.40;99.90
19164;DHT22;9714;51.208;4.242;2022-08-19T03:27:03;19.30;99.90
19164;DHT22;9714;51.208;4.242;2022-08-19T03:29:32;19.30;99.90
19164;DHT22;9714;51.208;4.242;2022-08-19T03:32:00;19.30;99.90
19164;DHT22;9714;51.208;4.242;2022-08-19T03:34:29;19.20;99.90
19164;DHT22;9714;51.208;4.242;2022-08-19T03:37:02;19.20;99.90
19164;DHT22;9714;51.208;4.242;2022-08-19T03:39:30;19.30;99.90
19164;DHT22;9714;51.208;4.242;2022-08-19T03:41:57;19.20;99.90
19164;DHT22;9714;51.208;4.242;2022-08-19T03:44:29;19.20;99.90
19164;DHT22;9714;51.208;4.242;2022-08-19T03:46:58;19.20;99.90
19164;DHT22;9714;51.208;4.242;2022-08-19T03:49:28;19.10;99.90
19164;DHT22;9714;51.208;4.242;2022-08-19T03:51:58;19.20;99.90
19164;DHT22;9714;51.208;4.242;2022-08-19T03:54:26;19.20;99.90
19164;DHT22;9714;51.208;4.242;2022-08-19T03:57:00;19.10;99.90
19164;DHT22;9714;51.208;4.242;2022-08-19T03:59:30;19.10;99.90
19164;DHT22;9714;51.208;4.242;2022-08-19T04:02:00;19.00;99.90
19164;DHT22;9714;51.208;4.242;2022-08-19T04:04:28;19.00;99.90
19164;DHT22;9714;51.208;4.242;2022-08-19T04:06:55;18.90;99.90
19164;DHT22;9714;51.208;4.242;2022-08-19T04:09:24;18.90;99.90
19164;DHT22;9714;51.208;4.242;2022-08-19T04:11:53;18.90;99.90
19164;DHT22;9714;51.208;4.242;2022-08-19T04:14:22;18.90;99.90
19164;DHT22;9714;51.208;4.242;2022-08-19T04:16:50;19.00;99.90
19164;DHT22;9714;51.208;4.242;2022-08-19T04:19:19;18.90;99.90
19164;DHT22;9714;51.208;4.242;2022-08-19T04:21:50;18.80;99.90
19164;DHT22;9714;51.208;4.242;2022-08-19T04:24:18;19.00;99.90
19164;DHT22;9714;51.208;4.242;2022-08-19T04:26:47;18.80;99.90
19164;DHT22;9714;51.208;4.242;2022-08-19T04:29:16;18.90;99.90
19164;DHT22;9714;51.208;4.242;2022-08-19T04:31:45;18.80;99.90
19164;DHT22;9714;51.208;4.242;2022-08-19T04:34:15;18.90;99.90
19164;DHT22;9714;51.208;4.242;2022-08-19T04:36:43;18.70;99.90
19164;DHT22;9714;51.208;4.242;2022-08-19T04:39:14;18.70;99.90
19164;DHT22;9714;51.208;4.242;2022-08-19T04:41:41;18.60;99.90
19164;DHT22;9714;51.208;4.242;2022-08-19T04:44:27;18.70;99.90
19164;DHT22;9714;51.208;4.242;2022-08-19T04:46:56;18.80;99.90
19164;DHT22;9714;51.208;4.242;2022-08-19T04:49:24;18.60;99.90
19164;DHT22;9714;51.208;4.242;2022-08-19T04:51:53;18.70;99.90
19164;DHT22;9714;51.208;4.242;2022-08-19T04:54:21;18.80;99.90
19164;DHT22;9714;51.208;4.242;2022-08-19T04:56:49;18.80;99.90
19164;DHT22;9714;51.208;4.242;2022-08-19T04:59:17;18.80;99.90
19164;DHT22;9714;51.208;4.242;2022-08-19T05:01:47;18.70;99.90
19164;DHT22;9714;51.208;4.242;2022-08-19T05:04:17;18.80;99.90
19164;DHT22;9714;51.208;4.242;2022-08-19T05:06:46;18.70;99.90
19164;DHT22;9714;51.208;4.242;2022-08-19T05:09:13;18.70;99.90
19164;DHT22;9714;51.208;4.242;2022-08-19T05:11:41;18.70;99.90
19164;DHT22;9714;51.208;4.242;2022-08-19T05:14:10;18.90;99.90
19164;DHT22;9714;51.208;4.242;2022-08-19T05:16:38;18.80;99.90
19164;DHT22;9714;51.208;4.242;2022-08-19T05:19:07;18.90;99.90
19164;DHT22;9714;51.208;4.242;2022-08-19T05:21:53;18.80;99.90
19164;DHT22;9714;51.208;4.242;2022-08-19T05:24:38;18.90;99.90
19164;DHT22;9714;51.208;4.242;2022-08-19T05:27:06;18.90;99.90
19164;DHT22;9714;51.208;4.242;2022-08-19T05:29:33;18.90;99.90
19164;DHT22;9714;51.208;4.242;2022-08-19T05:32:07;19.00;99.90
19164;DHT22;9714;51.208;4.242;2022-08-19T05:34:37;19.10;99.90
19164;DHT22;9714;51.208;4.242;2022-08-19T05:37:05;19.20;99.90
19164;DHT22;9714;51.208;4.242;2022-08-19T05:39:34;19.20;99.90
19164;DHT22;9714;51.208;4.242;2022-08-19T05:42:06;19.10;99.90
19164;DHT22;9714;51.208;4.242;2022-08-19T05:44:35;19.00;99.90
19164;DHT22;9714;51.208;4.242;2022-08-19T05:47:05;19.10;99.90
19164;DHT22;9714;51.208;4.242;2022-08-19T05:49:33;19.30;99.90
19164;DHT22;9714;51.208;4.242;2022-08-19T05:52:04;19.20;99.90
19164;DHT22;9714;51.208;4.242;2022-08-19T05:54:31;19.40;99.90
19164;DHT22;9714;51.208;4.242;2022-08-19T05:57:00;19.50;99.90
19164;DHT22;9714;51.208;4.242;2022-08-19T05:59:31;19.50;99.90
19164;DHT22;9714;51.208;4.242;2022-08-19T06:02:02;19.60;99.90
19164;DHT22;9714;51.208;4.242;2022-08-19T06:04:30;19.80;99.90
19164;DHT22;9714;51.208;4.242;2022-08-19T06:06:57;20.00;99.90
19164;DHT22;9714;51.208;4.242;2022-08-19T06:09:25;20.00;99.90
19164;DHT22;9714;51.208;4.242;2022-08-19T06:11:53;20.10;99.90
19164;DHT22;9714;51.208;4.242;2022-08-19T06:14:23;20.10;99.90
19164;DHT22;9714;51.208;4.242;2022-08-19T06:16:50;20.20;99.90
19164;DHT22;9714;51.208;4.242;2022-08-19T06:19:24;20.30;99.90
19164;DHT22;9714;51.208;4.242;2022-08-19T06:21:52;20.20;99.90
19164;DHT22;9714;51.208;4.242;2022-08-19T06:24:22;20.30;99.90
19164;DHT22;9714;51.208;4.242;2022-08-19T06:26:54;20.20;99.90
19164;DHT22;9714;51.208;4.242;2022-08-19T06:29:28;20.20;99.90
19164;DHT22;9714;51.208;4.242;2022-08-19T06:31:56;20.20;99.90
19164;DHT22;9714;51.208;4.242;2022-08-19T06:34:32;20.30;99.90
19164;DHT22;9714;51.208;4.242;2022-08-19T06:37:02;20.40;99.90
19164;DHT22;9714;51.208;4.242;2022-08-19T06:39:35;20.50;99.90
19164;DHT22;9714;51.208;4.242;2022-08-19T06:42:12;20.60;99.90
19164;DHT22;9714;51.208;4.242;2022-08-19T06:47:35;20.50;99.90
19164;DHT22;9714;51.208;4.242;2022-08-19T06:50:08;20.60;99.90
19164;DHT22;9714;51.208;4.242;2022-08-19T06:52:35;20.70;99.90
19164;DHT22;9714;51.208;4.242;2022-08-19T06:55:04;20.80;99.90
19164;DHT22;9714;51.208;4.242;2022-08-19T06:57:35;21.10;99.90
19164;DHT22;9714;51.208;4.242;2022-08-19T07:00:05;21.00;99.90
19164;DHT22;9714;51.208;4.242;2022-08-19T07:02:38;20.90;99.90
19164;DHT22;9714;51.208;4.242;2022-08-19T07:05:08;20.90;99.90
19164;DHT22;9714;51.208;4.242;2022-08-19T07:07:38;20.70;99.90
19164;DHT22;9714;51.208;4.242;2022-08-19T07:10:13;20.60;99.90
19164;DHT22;9714;51.208;4.242;2022-08-19T07:12:44;20.70;99.90
19164;DHT22;9714;51.208;4.242;2022-08-19T07:15:13;20.50;99.90
19164;DHT22;9714;51.208;4.242;2022-08-19T07:17:44;20.60;99.90
19164;DHT22;9714;51.208;4.242;2022-08-19T07:20:19;20.80;99.90
19164;DHT22;9714;51.208;4.242;2022-08-19T07:22:46;21.10;99.90
19164;DHT22;9714;51.208;4.242;2022-08-19T07:25:14;21.20;99.90
19164;DHT22;9714;51.208;4.242;2022-08-19T07:27:44;21.10;99.90
19164;DHT22;9714;51.208;4.242;2022-08-19T07:30:12;21.20;99.90
19164;DHT22;9714;51.208;4.242;2022-08-19T07:36:18;21.00;99.90
19164;DHT22;9714;51.208;4.242;2022-08-19T07:38:49;21.20;99.90
19164;DHT22;9714;51.208;4.242;2022-08-19T07:41:21;21.20;99.90
19164;DHT22;9714;51.208;4.242;2022-08-19T07:43:51;21.60;99.90
19164;DHT22;9714;51.208;4.242;2022-08-19T07:46:21;21.70;99.90
19164;DHT22;9714;51.208;4.242;2022-08-19T07:48:53;21.90;99.90
19164;DHT22;9714;51.208;4.242;2022-08-19T07:51:27;22.00;99.90
19164;DHT22;9714;51.208;4.242;2022-08-19T07:53:54;22.00;99.90
19164;DHT22;9714;51.208;4.242;2022-08-19T07:56:21;21.80;99.90
19164;DHT22;9714;51.208;4.242;2022-08-19T07:58:53;21.70;99.90
19164;DHT22;9714;51.208;4.242;2022-08-19T08:01:24;21.80;99.90
19164;DHT22;9714;51.208;4.242;2022-08-19T08:03:57;22.10;99.90
19164;DHT22;9714;51.208;4.242;2022-08-19T08:06:42;22.30;99.90
19164;DHT22;9714;51.208;4.242;2022-08-19T08:09:31;22.30;99.90
19164;DHT22;9714;51.208;4.242;2022-08-19T08:12:07;22.50;99.90
19164;DHT22;9714;51.208;4.242;2022-08-19T08:14:39;22.30;99.90
19164;DHT22;9714;51.208;4.242;2022-08-19T08:17:07;22.20;99.90
19164;DHT22;9714;51.208;4.242;2022-08-19T08:19:35;22.20;99.90
19164;DHT22;9714;51.208;4.242;2022-08-19T08:22:03;22.30;99.90
19164;DHT22;9714;51.208;4.242;2022-08-19T08:24:37;22.40;99.90
19164;DHT22;9714;51.208;4.242;2022-08-19T08:30:21;22.20;99.90
19164;DHT22;9714;51.208;4.242;2022-08-19T08:39:22;22.30;99.90
19164;DHT22;9714;51.208;4.242;2022-08-19T08:45:13;22.30;99.90
19164;DHT22;9714;51.208;4.242;2022-08-19T08:48:10;22.00;99.90
19164;DHT22;9714;51.208;4.242;2022-08-19T08:50:46;22.20;99.90
19164;DHT22;9714;51.208;4.242;2022-08-19T08:53:30;22.20;99.90
19164;DHT22;9714;51.208;4.242;2022-08-19T08:56:06;22.30;99.90
19164;DHT22;9714;51.208;4.242;2022-08-19T08:58:48;22.20;99.90
19164;DHT22;9714;51.208;4.242;2022-08-19T09:01:28;22.10;99.90
19164;DHT22;9714;51.208;4.242;2022-08-19T09:03:59;22.20;99.90
19164;DHT22;9714;51.208;4.242;2022-08-19T09:06:49;22.30;99.90
19164;DHT22;9714;51.208;4.242;2022-08-19T09:09:29;22.30;99.90
19164;DHT22;9714;51.208;4.242;2022-08-19T09:12:10;22.50;99.90
19164;DHT22;9714;51.208;4.242;2022-08-19T09:15:13;22.50;99.90
19164;DHT22;9714;51.208;4.242;2022-08-19T09:17:41;22.50;99.90
19164;DHT22;9714;51.208;4.242;2022-08-19T09:20:24;22.70;99.90
19164;DHT22;9714;51.208;4.242;2022-08-19T09:22:53;22.70;99.90
19164;DHT22;9714;51.208;4.242;2022-08-19T09:25:25;23.00;99.90
19164;DHT22;9714;51.208;4.242;2022-08-19T09:27:55;22.80;99.90
19164;DHT22;9714;51.208;4.242;2022-08-19T09:30:25;22.80;99.90
19164;DHT22;9714;51.208;4.242;2022-08-19T09:32:53;22.50;99.90
19164;DHT22;9714;51.208;4.242;2022-08-19T09:35:21;22.60;99.90
19164;DHT22;9714;51.208;4.242;2022-08-19T09:37:51;22.60;99.90
19164;DHT22;9714;51.208;4.242;2022-08-19T09:40:18;22.60;99.90
19164;DHT22;9714;51.208;4.242;2022-08-19T09:42:46;22.70;99.90
19164;DHT22;9714;51.208;4.242;2022-08-19T09:45:15;22.60;99.90
19164;DHT22;9714;51.208;4.242;2022-08-19T09:47:42;22.80;99.90
19164;DHT22;9714;51.208;4.242;2022-08-19T09:50:11;22.60;99.90
19164;DHT22;9714;51.208;4.242;2022-08-19T09:52:38;22.70;99.90
19164;DHT22;9714;51.208;4.242;2022-08-19T09:55:10;22.60;99.90
19164;DHT22;9714;51.208;4.242;2022-08-19T09:57:37;22.70;99.90
19164;DHT22;9714;51.208;4.242;2022-08-19T10:00:06;22.80;99.90
19164;DHT22;9714;51.208;4.242;2022-08-19T10:02:34;22.90;99.90
19164;DHT22;9714;51.208;4.242;2022-08-19T10:05:01;22.80;99.90
19164;DHT22;9714;51.208;4.242;2022-08-19T10:07:46;22.90;99.90
19164;DHT22;9714;51.208;4.242;2022-08-19T10:10:14;22.90;99.90
19164;DHT22;9714;51.208;4.242;2022-08-19T10:12:41;23.00;99.90
19164;DHT22;9714;51.208;4.242;2022-08-19T10:15:14;23.00;99.90
19164;DHT22;9714;51.208;4.242;2022-08-19T10:17:46;23.10;99.90
19164;DHT22;9714;51.208;4.242;2022-08-19T10:20:13;23.20;99.90
19164;DHT22;9714;51.208;4.242;2022-08-19T10:22:40;23.50;99.90
19164;DHT22;9714;51.208;4.242;2022-08-19T10:25:09;23.60;99.90
19164;DHT22;9714;51.208;4.242;2022-08-19T10:27:38;23.80;99.90
19164;DHT22;9714;51.208;4.242;2022-08-19T10:30:08;23.80;99.90
19164;DHT22;9714;51.208;4.242;2022-08-19T10:32:35;23.80;99.90
19164;DHT22;9714;51.208;4.242;2022-08-19T10:35:03;23.60;99.90
19164;DHT22;9714;51.208;4.242;2022-08-19T10:37:34;23.80;99.90
19164;DHT22;9714;51.208;4.242;2022-08-19T10:40:01;23.80;99.90
19164;DHT22;9714;51.208;4.242;2022-08-19T10:42:28;23.80;99.90
19164;DHT22;9714;51.208;4.242;2022-08-19T10:44:58;23.90;99.90
19164;DHT22;9714;51.208;4.242;2022-08-19T10:47:25;23.80;99.90
19164;DHT22;9714;51.208;4.242;2022-08-19T11:53:41;24.20;99.90
19164;DHT22;9714;51.208;4.242;2022-08-19T11:56:09;26.40;99.90
19164;DHT22;9714;51.208;4.242;2022-08-19T11:58:36;26.30;99.90
19164;DHT22;9714;51.208;4.242;2022-08-19T12:01:06;27.00;99.90
19164;DHT22;9714;51.208;4.242;2022-08-19T12:03:33;26.80;99.90
19164;DHT22;9714;51.208;4.242;2022-08-19T12:06:04;26.80;99.90
19164;DHT22;9714;51.208;4.242;2022-08-19T12:08:31;26.90;99.90
19164;DHT22;9714;51.208;4.242;2022-08-19T12:10:59;26.90;99.90
19164;DHT22;9714;51.208;4.242;2022-08-19T12:13:27;26.40;99.90
19164;DHT22;9714;51.208;4.242;2022-08-19T12:15:54;26.60;99.90
19164;DHT22;9714;51.208;4.242;2022-08-19T12:18:21;26.70;99.90
19164;DHT22;9714;51.208;4.242;2022-08-19T12:20:53;26.50;99.90
19164;DHT22;9714;51.208;4.242;2022-08-19T12:23:21;27.00;99.90
19164;DHT22;9714;51.208;4.242;2022-08-19T12:25:49;27.00;99.90
19164;DHT22;9714;51.208;4.242;2022-08-19T12:28:19;26.60;99.90
19164;DHT22;9714;51.208;4.242;2022-08-19T12:30:46;26.70;99.90
19164;DHT22;9714;51.208;4.242;2022-08-19T12:33:14;26.80;99.90
19164;DHT22;9714;51.208;4.242;2022-08-19T12:35:41;26.80;99.90
19164;DHT22;9714;51.208;4.242;2022-08-19T12:38:13;26.60;99.90
19164;DHT22;9714;51.208;4.242;2022-08-19T12:40:41;26.30;99.90
19164;DHT22;9714;51.208;4.242;2022-08-19T12:43:11;26.10;99.90
19164;DHT22;9714;51.208;4.242;2022-08-19T12:45:41;26.00;99.90
19164;DHT22;9714;51.208;4.242;2022-08-19T12:48:10;26.00;99.90
19164;DHT22;9714;51.208;4.242;2022-08-19T12:50:39;26.20;99.90
19164;DHT22;9714;51.208;4.242;2022-08-19T12:53:06;26.20;99.90
19164;DHT22;9714;51.208;4.242;2022-08-19T12:55:33;26.20;99.90
19164;DHT22;9714;51.208;4.242;2022-08-19T12:58:00;26.50;99.90
19164;DHT22;9714;51.208;4.242;2022-08-19T13:00:28;26.80;99.90
19164;DHT22;9714;51.208;4.242;2022-08-19T13:02:58;27.30;99.90
19164;DHT22;9714;51.208;4.242;2022-08-19T13:05:27;27.70;99.90
19164;DHT22;9714;51.208;4.242;2022-08-19T13:07:57;28.10;99.90
19164;DHT22;9714;51.208;4.242;2022-08-19T13:10:28;28.40;99.90
19164;DHT22;9714;51.208;4.242;2022-08-19T13:12:55;28.90;99.90
19164;DHT22;9714;51.208;4.242;2022-08-19T13:15:23;30.20;99.90
19164;DHT22;9714;51.208;4.242;2022-08-19T13:17:52;31.30;99.90
19164;DHT22;9714;51.208;4.242;2022-08-19T13:20:22;31.10;99.90
19164;DHT22;9714;51.208;4.242;2022-08-19T13:22:50;30.80;99.90
19164;DHT22;9714;51.208;4.242;2022-08-19T13:25:18;31.30;99.90
19164;DHT22;9714;51.208;4.242;2022-08-19T13:27:46;31.80;99.90
19164;DHT22;9714;51.208;4.242;2022-08-19T13:30:22;32.20;99.90
19164;DHT22;9714;51.208;4.242;2022-08-19T13:33:08;33.00;99.90
19164;DHT22;9714;51.208;4.242;2022-08-19T13:35:47;33.20;99.90
19164;DHT22;9714;51.208;4.242;2022-08-19T13:38:19;32.40;99.90
19164;DHT22;9714;51.208;4.242;2022-08-19T13:40:49;31.30;99.90
19164;DHT22;9714;51.208;4.242;2022-08-19T13:43:19;30.50;99.90
19164;DHT22;9714;51.208;4.242;2022-08-19T13:45:47;29.80;99.90
19164;DHT22;9714;51.208;4.242;2022-08-19T13:48:18;29.20;99.90
19164;DHT22;9714;51.208;4.242;2022-08-19T13:50:46;28.90;99.90
19164;DHT22;9714;51.208;4.242;2022-08-19T13:53:16;28.40;99.90
19164;DHT22;9714;51.208;4.242;2022-08-19T13:55:44;27.90;99.90
19164;DHT22;9714;51.208;4.242;2022-08-19T13:58:12;27.60;99.90
19164;DHT22;9714;51.208;4.242;2022-08-19T14:00:44;27.70;99.90
19164;DHT22;9714;51.208;4.242;2022-08-19T14:03:12;27.80;99.90
19164;DHT22;9714;51.208;4.242;2022-08-19T14:05:39;27.40;99.90
19164;DHT22;9714;51.208;4.242;2022-08-19T14:08:08;27.10;99.90
19164;DHT22;9714;51.208;4.242;2022-08-19T14:10:36;26.80;99.90
19164;DHT22;9714;51.208;4.242;2022-08-19T14:13:04;26.60;99.90
19164;DHT22;9714;51.208;4.242;2022-08-19T14:15:32;26.60;99.90
19164;DHT22;9714;51.208;4.242;2022-08-19T14:17:59;26.40;99.90
19164;DHT22;9714;51.208;4.242;2022-08-19T14:20:26;26.20;99.90
19164;DHT22;9714;51.208;4.242;2022-08-19T14:22:53;25.70;99.90
19164;DHT22;9714;51.208;4.242;2022-08-19T14:25:25;24.90;99.90
19164;DHT22;9714;51.208;4.242;2022-08-19T14:27:52;24.20;99.90
19164;DHT22;9714;51.208;4.242;2022-08-19T14:30:21;23.80;99.90
19164;DHT22;9714;51.208;4.242;2022-08-19T14:32:50;23.50;99.90
19164;DHT22;9714;51.208;4.242;2022-08-19T14:35:18;23.30;99.90
19164;DHT22;9714;51.208;4.242;2022-08-19T14:37:49;23.10;99.90
19164;DHT22;9714;51.208;4.242;2022-08-19T14:40:19;23.10;99.90
19164;DHT22;9714;51.208;4.242;2022-08-19T14:42:48;22.90;99.90
19164;DHT22;9714;51.208;4.242;2022-08-19T14:45:16;22.90;99.90
19164;DHT22;9714;51.208;4.242;2022-08-19T14:47:44;23.00;99.90
19164;DHT22;9714;51.208;4.242;2022-08-19T14:50:11;23.10;99.90
19164;DHT22;9714;51.208;4.242;2022-08-19T14:52:39;23.20;99.90
19164;DHT22;9714;51.208;4.242;2022-08-19T14:55:07;23.20;99.90
19164;DHT22;9714;51.208;4.242;2022-08-19T14:57:34;23.30;99.90
19164;DHT22;9714;51.208;4.242;2022-08-19T15:00:04;23.80;99.90
19164;DHT22;9714;51.208;4.242;2022-08-19T15:02:31;24.10;99.90
19164;DHT22;9714;51.208;4.242;2022-08-19T15:04:59;24.60;99.90
19164;DHT22;9714;51.208;4.242;2022-08-19T15:07:26;25.10;99.90
19164;DHT22;9714;51.208;4.242;2022-08-19T15:09:53;26.70;99.90
19164;DHT22;9714;51.208;4.242;2022-08-19T15:12:20;28.30;99.90
19164;DHT22;9714;51.208;4.242;2022-08-19T15:14:49;29.40;99.90
19164;DHT22;9714;51.208;4.242;2022-08-19T15:17:19;29.50;99.90
19164;DHT22;9714;51.208;4.242;2022-08-19T15:19:46;30.00;99.90
19164;DHT22;9714;51.208;4.242;2022-08-19T15:22:13;30.10;99.90
19164;DHT22;9714;51.208;4.242;2022-08-19T15:24:40;30.20;99.90
19164;DHT22;9714;51.208;4.242;2022-08-19T15:27:10;30.00;99.90
19164;DHT22;9714;51.208;4.242;2022-08-19T15:29:38;29.80;99.90
19164;DHT22;9714;51.208;4.242;2022-08-19T15:32:05;29.70;99.90
19164;DHT22;9714;51.208;4.242;2022-08-19T15:34:34;29.50;99.90
19164;DHT22;9714;51.208;4.242;2022-08-19T15:37:01;29.30;99.90
19164;DHT22;9714;51.208;4.242;2022-08-19T15:39:30;29.10;99.90
19164;DHT22;9714;51.208;4.242;2022-08-19T15:41:57;29.40;99.90
19164;DHT22;9714;51.208;4.242;2022-08-19T15:44:26;29.30;99.90
19164;DHT22;9714;51.208;4.242;2022-08-19T15:46:54;28.70;99.90
19164;DHT22;9714;51.208;4.242;2022-08-19T15:49:21;28.70;99.90
19164;DHT22;9714;51.208;4.242;2022-08-19T15:51:51;28.60;99.90
19164;DHT22;9714;51.208;4.242;2022-08-19T15:54:20;29.00;99.90
19164;DHT22;9714;51.208;4.242;2022-08-19T15:56:48;28.90;99.90
19164;DHT22;9714;51.208;4.242;2022-08-19T15:59:37;28.70;99.90
19164;DHT22;9714;51.208;4.242;2022-08-19T16:02:25;28.30;99.90
19164;DHT22;9714;51.208;4.242;2022-08-19T16:05:12;27.80;99.90
19164;DHT22;9714;51.208;4.242;2022-08-19T16:07:59;27.50;99.90
19164;DHT22;9714;51.208;4.242;2022-08-19T16:10:26;27.00;99.90
19164;DHT22;9714;51.208;4.242;2022-08-19T16:12:53;27.40;99.90
19164;DHT22;9714;51.208;4.242;2022-08-19T16:15:20;27.30;99.90
19164;DHT22;9714;51.208;4.242;2022-08-19T16:17:47;27.10;99.90
19164;DHT22;9714;51.208;4.242;2022-08-19T16:20:14;26.90;99.90
19164;DHT22;9714;51.208;4.242;2022-08-19T16:22:42;26.70;99.90
19164;DHT22;9714;51.208;4.242;2022-08-19T16:25:10;26.60;99.90
19164;DHT22;9714;51.208;4.242;2022-08-19T16:27:38;26.60;99.90
19164;DHT22;9714;51.208;4.242;2022-08-19T16:30:07;26.80;99.90
19164;DHT22;9714;51.208;4.242;2022-08-19T16:32:34;26.70;99.90
19164;DHT22;9714;51.208;4.242;2022-08-19T16:35:03;26.60;99.90
19164;DHT22;9714;51.208;4.242;2022-08-19T16:37:30;26.60;99.90
19164;DHT22;9714;51.208;4.242;2022-08-19T16:39:58;26.70;99.90
19164;DHT22;9714;51.208;4.242;2022-08-19T16:42:26;26.60;99.90
19164;DHT22;9714;51.208;4.242;2022-08-19T16:44:53;26.50;99.90
19164;DHT22;9714;51.208;4.242;2022-08-19T16:47:20;26.30;99.90
19164;DHT22;9714;51.208;4.242;2022-08-19T16:49:48;26.20;99.90
19164;DHT22;9714;51.208;4.242;2022-08-19T16:52:15;25.90;99.90
19164;DHT22;9714;51.208;4.242;2022-08-19T16:54:43;25.80;99.90
19164;DHT22;9714;51.208;4.242;2022-08-19T16:57:10;25.80;99.90
19164;DHT22;9714;51.208;4.242;2022-08-19T16:59:39;25.80;99.90
19164;DHT22;9714;51.208;4.242;2022-08-19T17:02:07;25.70;99.90
19164;DHT22;9714;51.208;4.242;2022-08-19T17:04:34;25.50;99.90
19164;DHT22;9714;51.208;4.242;2022-08-19T17:07:01;25.50;99.90
19164;DHT22;9714;51.208;4.242;2022-08-19T17:09:29;25.60;99.90
19164;DHT22;9714;51.208;4.242;2022-08-19T17:11:58;25.40;99.90
19164;DHT22;9714;51.208;4.242;2022-08-19T17:14:25;25.40;99.90
19164;DHT22;9714;51.208;4.242;2022-08-19T17:16:54;25.40;99.90
19164;DHT22;9714;51.208;4.242;2022-08-19T17:19:21;25.50;99.90
19164;DHT22;9714;51.208;4.242;2022-08-19T17:21:48;25.60;99.90
19164;DHT22;9714;51.208;4.242;2022-08-19T17:24:15;25.70;99.90